KARB/ARB METAR and TAF weather

Enter ICAO airport designator
Station Type Date Time Source
KARB METAR 2022/06/28 13:53 UTC NOAA

KARB 281353Z 20005KT 10SM CLR 19/07 A3026 RMK AO2 SLP246 T01940072


Station Type Date Time Source
KARB Decoded METAR 2022/06/28 13:53 UTC NOAA

ANN ARBOR MUNICIPAL AIRPORT, MI, United States (KARB) 42-13N 083-45W 251M
Jun 28, 2022 - 09:53 AM EDT / 2022.06.28 1353 UTC
Wind: from the SSW (200 degrees) at 6 MPH (5 KT):0
Visibility: 10 mile(s):0
Sky conditions: clear
Temperature: 66.9 F (19.4 C)
Dew Point: 45.0 F (7.2 C)
Relative Humidity: 45%
Pressure (altimeter): 30.26 in. Hg (1024 hPa)
ob: KARB 281353Z 20005KT 10SM CLR 19/07 A3026 RMK AO2 SLP246 T01940072
cycle: 14

Station Type Date Time Source
KARB TAF UTC NOAA

Error!

Example: see airport list